createdAt,value
2019-01-26T00:00:54.813Z,1002.82
2019-01-26T00:01:54.801Z,1002.84
2019-01-26T00:02:54.848Z,1002.82
2019-01-26T00:03:54.882Z,1002.76
2019-01-26T00:04:54.739Z,1002.83
2019-01-26T00:05:54.728Z,1002.74
2019-01-26T00:06:54.719Z,1002.78
2019-01-26T00:07:54.703Z,1002.79
2019-01-26T00:08:54.717Z,1002.78
2019-01-26T00:09:54.761Z,1002.72
2019-01-26T00:10:54.737Z,1002.70
2019-01-26T00:11:54.739Z,1002.63
2019-01-26T00:12:54.708Z,1002.59
2019-01-26T00:13:54.710Z,1002.56
2019-01-26T00:14:55.676Z,1002.49
2019-01-26T00:15:54.631Z,1002.50
2019-01-26T00:16:54.604Z,1002.50
2019-01-26T00:17:54.622Z,1002.51
2019-01-26T00:18:54.637Z,1002.43
2019-01-26T00:19:55.060Z,1002.38
2019-01-26T00:20:54.572Z,1002.34
2019-01-26T00:21:54.570Z,1002.26
2019-01-26T00:22:54.558Z,1002.28
2019-01-26T00:23:55.770Z,1002.24
2019-01-26T00:24:54.547Z,1002.20
2019-01-26T00:25:54.564Z,1002.20
2019-01-26T00:26:54.570Z,1002.14
2019-01-26T00:27:54.549Z,1002.09
2019-01-26T00:28:54.495Z,1002.03
2019-01-26T00:29:54.481Z,1002.01
2019-01-26T00:30:54.512Z,1001.98
2019-01-26T00:31:54.481Z,1001.97
2019-01-26T00:32:55.462Z,1001.92
2019-01-26T00:33:54.447Z,1001.93
2019-01-26T00:34:54.449Z,1001.90
2019-01-26T00:35:54.456Z,1001.88
2019-01-26T00:36:54.463Z,1001.96
2019-01-26T00:37:54.387Z,1001.83
2019-01-26T00:38:54.379Z,1001.78
2019-01-26T00:39:54.369Z,1001.80
2019-01-26T00:40:54.364Z,1001.76
2019-01-26T00:41:54.416Z,1001.80
2019-01-26T00:42:55.043Z,1001.77
2019-01-26T00:43:54.339Z,1001.70
2019-01-26T00:44:54.355Z,1001.67
2019-01-26T00:45:54.354Z,1001.67
2019-01-26T00:46:54.303Z,1001.70
2019-01-26T00:47:54.299Z,1001.61
2019-01-26T00:48:54.314Z,1001.56
2019-01-26T00:49:54.283Z,1001.49
2019-01-26T00:50:54.284Z,1001.43
2019-01-26T00:51:54.271Z,1001.39
2019-01-26T00:52:54.239Z,1001.38
2019-01-26T00:53:54.221Z,1001.31
2019-01-26T00:54:54.247Z,1001.35
2019-01-26T00:55:54.248Z,1001.40
2019-01-26T00:56:54.220Z,1001.37
2019-01-26T00:57:54.199Z,1001.36
2019-01-26T00:58:54.178Z,1001.39
2019-01-26T00:59:54.153Z,1001.39
2019-01-26T01:00:54.153Z,1001.38
2019-01-26T01:01:54.179Z,1001.35
2019-01-26T01:02:54.131Z,1001.31
2019-01-26T01:03:54.120Z,1001.29
2019-01-26T01:04:54.107Z,1001.29
2019-01-26T01:05:54.102Z,1001.28
2019-01-26T01:06:54.079Z,1001.26
2019-01-26T01:07:55.095Z,1001.26
2019-01-26T01:08:54.074Z,1001.23
2019-01-26T01:09:54.085Z,1001.23
2019-01-26T01:10:54.047Z,1001.20
2019-01-26T01:11:54.043Z,1001.24
2019-01-26T01:12:54.058Z,1001.21
2019-01-26T01:13:54.056Z,1001.20
2019-01-26T01:14:54.019Z,1001.24
2019-01-26T01:15:53.992Z,1001.23
2019-01-26T01:16:53.974Z,1001.18
2019-01-26T01:17:53.986Z,1001.19
2019-01-26T01:18:54.013Z,1001.16
2019-01-26T01:19:53.968Z,1001.18
2019-01-26T01:20:53.982Z,1001.17
2019-01-26T01:21:53.977Z,1001.15
2019-01-26T01:22:53.967Z,1001.11
2019-01-26T01:23:53.921Z,1001.04
2019-01-26T01:24:53.895Z,1001.07
2019-01-26T01:25:53.890Z,1001.07
2019-01-26T01:26:53.889Z,1001.14
2019-01-26T01:27:53.864Z,1001.11
2019-01-26T01:28:53.895Z,1001.09
2019-01-26T01:29:53.847Z,1001.05
2019-01-26T01:30:53.867Z,1001.02
2019-01-26T01:31:53.865Z,1000.94
2019-01-26T01:32:53.950Z,1000.92
2019-01-26T01:33:53.802Z,1000.93
2019-01-26T01:34:53.883Z,1000.90
2019-01-26T01:35:53.786Z,1000.86
2019-01-26T01:36:53.800Z,1000.86
2019-01-26T01:37:53.757Z,1000.90
2019-01-26T01:38:53.810Z,1000.73
2019-01-26T01:39:53.771Z,1000.73
2019-01-26T01:40:53.735Z,1000.69
2019-01-26T01:41:53.718Z,1000.66
2019-01-26T01:42:53.727Z,1000.60
2019-01-26T01:43:53.715Z,1000.59
2019-01-26T01:44:53.710Z,1000.63
2019-01-26T01:45:53.709Z,1000.59
2019-01-26T01:46:53.668Z,1000.51
2019-01-26T01:47:53.671Z,1000.53
2019-01-26T01:48:53.654Z,1000.45
2019-01-26T01:49:53.641Z,1000.44
2019-01-26T01:50:53.676Z,1000.53
2019-01-26T01:51:53.643Z,1000.39
2019-01-26T01:52:53.611Z,1000.36
2019-01-26T01:53:53.626Z,1000.29
2019-01-26T01:54:53.583Z,1000.30
2019-01-26T01:55:53.610Z,1000.31
2019-01-26T01:56:53.596Z,1000.28
2019-01-26T01:57:53.580Z,1000.24
2019-01-26T01:58:53.562Z,1000.28
2019-01-26T01:59:53.571Z,1000.22
2019-01-26T02:00:53.547Z,1000.22
2019-01-26T02:01:53.549Z,1000.23
2019-01-26T02:02:53.520Z,1000.29
2019-01-26T02:03:53.485Z,1000.20
2019-01-26T02:04:53.512Z,1000.22
2019-01-26T02:05:53.479Z,1000.18
2019-01-26T02:06:53.496Z,1000.20
2019-01-26T02:07:53.459Z,1000.14
2019-01-26T02:08:53.438Z,1000.19
2019-01-26T02:09:53.434Z,1000.09
2019-01-26T02:10:53.416Z,1000.15
2019-01-26T02:11:53.409Z,1000.14
2019-01-26T02:12:53.459Z,1000.06
2019-01-26T02:13:53.388Z,1000.14
2019-01-26T02:14:53.400Z,1000.12
2019-01-26T02:15:53.374Z,1000.06
2019-01-26T02:16:53.355Z,999.98
2019-01-26T02:17:53.347Z,999.99
2019-01-26T02:18:53.345Z,999.99
2019-01-26T02:19:53.355Z,999.97
2019-01-26T02:20:53.308Z,999.96
2019-01-26T02:21:53.309Z,999.95
2019-01-26T02:22:53.295Z,999.88
2019-01-26T02:23:53.285Z,999.92
2019-01-26T02:24:53.328Z,999.86
2019-01-26T02:25:53.294Z,999.89
2019-01-26T02:26:53.264Z,999.89
2019-01-26T02:27:53.241Z,999.92
2019-01-26T02:28:53.254Z,999.85
2019-01-26T02:29:53.247Z,999.84
2019-01-26T02:30:53.204Z,999.77
2019-01-26T02:31:53.214Z,999.71
2019-01-26T02:32:54.687Z,999.65
2019-01-26T02:33:53.207Z,999.65
2019-01-26T02:34:53.191Z,999.59
2019-01-26T02:35:53.194Z,999.59
2019-01-26T02:36:53.160Z,999.51
2019-01-26T02:37:53.166Z,999.55
2019-01-26T02:38:53.161Z,999.55
2019-01-26T02:39:53.118Z,999.56
2019-01-26T02:40:53.131Z,999.50
2019-01-26T02:41:53.115Z,999.53
2019-01-26T02:42:53.097Z,999.55
2019-01-26T02:43:53.144Z,999.57
2019-01-26T02:44:53.152Z,999.53
2019-01-26T02:45:53.059Z,999.52
2019-01-26T02:46:57.959Z,999.48
2019-01-26T02:47:54.031Z,999.49
2019-01-26T02:48:53.048Z,999.49
2019-01-26T02:49:53.037Z,999.47
2019-01-26T02:50:53.004Z,999.42
2019-01-26T02:51:52.991Z,999.40
2019-01-26T02:52:52.981Z,999.43
2019-01-26T02:53:52.973Z,999.40
2019-01-26T02:54:52.950Z,999.32
2019-01-26T02:55:52.961Z,999.27
2019-01-26T02:56:52.936Z,999.29
2019-01-26T02:57:52.927Z,999.24
2019-01-26T02:58:52.927Z,999.22
2019-01-26T02:59:52.920Z,999.25
2019-01-26T03:00:52.917Z,999.23
2019-01-26T03:01:52.889Z,999.19
2019-01-26T03:02:52.872Z,999.20
2019-01-26T03:03:52.873Z,999.17
2019-01-26T03:04:52.877Z,999.17
2019-01-26T03:05:52.842Z,999.11
2019-01-26T03:06:52.886Z,999.12
2019-01-26T03:07:52.817Z,999.04
2019-01-26T03:08:52.835Z,999.08
2019-01-26T03:09:52.819Z,999.01
2019-01-26T03:10:52.789Z,998.96
2019-01-26T03:11:52.863Z,998.94
2019-01-26T03:12:52.787Z,998.92
2019-01-26T03:13:52.774Z,998.98
2019-01-26T03:14:52.743Z,998.94
2019-01-26T03:15:52.738Z,998.89
2019-01-26T03:16:52.729Z,998.90
2019-01-26T03:17:52.753Z,998.83
2019-01-26T03:18:52.705Z,998.79
2019-01-26T03:19:52.699Z,998.83
2019-01-26T03:20:52.699Z,998.76
2019-01-26T03:21:52.711Z,998.72
2019-01-26T03:22:52.695Z,998.70
2019-01-26T03:23:52.697Z,998.68
2019-01-26T03:24:52.637Z,998.66
2019-01-26T03:25:52.633Z,998.69
2019-01-26T03:26:52.637Z,998.68
2019-01-26T03:27:52.646Z,998.67
2019-01-26T03:28:52.644Z,998.69
2019-01-26T03:29:52.619Z,998.67
2019-01-26T03:30:52.600Z,998.65
2019-01-26T03:31:52.575Z,998.64
2019-01-26T03:32:52.594Z,998.73
2019-01-26T03:33:52.552Z,998.73
2019-01-26T03:34:52.574Z,998.73
2019-01-26T03:35:52.526Z,998.71
2019-01-26T03:36:52.529Z,998.65
2019-01-26T03:37:52.551Z,998.69
2019-01-26T03:38:52.527Z,998.70
2019-01-26T03:39:52.500Z,998.74
2019-01-26T03:40:52.486Z,998.75
2019-01-26T03:41:52.468Z,998.73
2019-01-26T03:42:52.457Z,998.72
2019-01-26T03:43:52.509Z,998.69
2019-01-26T03:44:52.429Z,998.64
2019-01-26T03:45:52.418Z,998.66
2019-01-26T03:46:52.415Z,998.58
2019-01-26T03:47:52.397Z,998.52
2019-01-26T03:48:52.391Z,998.54
2019-01-26T03:49:53.696Z,998.58
2019-01-26T03:50:52.373Z,998.54
2019-01-26T03:51:52.364Z,998.53
2019-01-26T03:52:52.348Z,998.52
2019-01-26T03:53:52.365Z,998.54
2019-01-26T03:54:52.374Z,998.48
2019-01-26T03:55:52.351Z,998.48
2019-01-26T03:56:52.359Z,998.45
2019-01-26T03:57:52.310Z,998.39
2019-01-26T03:58:52.301Z,998.43
2019-01-26T03:59:52.280Z,998.45
2019-01-26T04:00:52.298Z,998.36
2019-01-26T04:01:52.261Z,998.39
2019-01-26T04:02:52.255Z,998.38
2019-01-26T04:03:52.242Z,998.32
2019-01-26T04:04:52.223Z,998.33
2019-01-26T04:05:52.254Z,998.29
2019-01-26T04:06:52.203Z,998.32
2019-01-26T04:07:52.197Z,998.35
2019-01-26T04:08:52.189Z,998.33
2019-01-26T04:09:52.177Z,998.30
2019-01-26T04:10:52.181Z,998.28
2019-01-26T04:11:52.152Z,998.26
2019-01-26T04:12:52.207Z,998.23
2019-01-26T04:13:52.130Z,998.22
2019-01-26T04:14:52.124Z,998.19
2019-01-26T04:15:52.187Z,998.17
2019-01-26T04:16:52.119Z,998.23
2019-01-26T04:17:52.081Z,998.18
2019-01-26T04:18:52.084Z,998.19
2019-01-26T04:19:52.112Z,998.08
2019-01-26T04:20:52.101Z,998.12
2019-01-26T04:21:52.073Z,998.15
2019-01-26T04:22:52.104Z,998.12
2019-01-26T04:23:52.041Z,998.09
2019-01-26T04:24:52.009Z,998.11
2019-01-26T04:25:52.024Z,998.16
2019-01-26T04:26:52.019Z,998.08
2019-01-26T04:27:52.003Z,998.15
2019-01-26T04:28:51.989Z,998.11
2019-01-26T04:29:51.958Z,998.10
2019-01-26T04:30:51.947Z,998.07
2019-01-26T04:31:51.979Z,998.03
2019-01-26T04:32:51.934Z,998.03
2019-01-26T04:33:51.928Z,998.02
2019-01-26T04:34:51.921Z,998.02
2019-01-26T04:35:51.911Z,997.97
2019-01-26T04:36:51.889Z,997.96
2019-01-26T04:37:51.950Z,997.98
2019-01-26T04:38:51.889Z,998.01
2019-01-26T04:39:51.871Z,998.02
2019-01-26T04:40:51.864Z,998.03
2019-01-26T04:41:51.868Z,997.93
2019-01-26T04:42:51.826Z,997.98
2019-01-26T04:43:51.870Z,997.95
2019-01-26T04:44:51.860Z,997.91
2019-01-26T04:45:51.803Z,997.90
2019-01-26T04:46:51.809Z,997.87
2019-01-26T04:47:51.785Z,997.89
2019-01-26T04:48:51.765Z,997.88
2019-01-26T04:49:51.761Z,997.90
2019-01-26T04:50:51.739Z,997.86
2019-01-26T04:51:51.740Z,997.82
2019-01-26T04:52:51.814Z,997.84
2019-01-26T04:53:51.739Z,997.81
2019-01-26T04:54:51.700Z,997.79
2019-01-26T04:55:51.699Z,997.74
2019-01-26T04:56:51.676Z,997.74
2019-01-26T04:57:51.706Z,997.77
2019-01-26T04:58:51.672Z,997.75
2019-01-26T04:59:51.685Z,997.75
2019-01-26T05:00:51.637Z,997.74
2019-01-26T05:01:51.625Z,997.73
2019-01-26T05:02:51.693Z,997.74
2019-01-26T05:03:51.613Z,997.75
2019-01-26T05:04:51.620Z,997.70
2019-01-26T05:05:51.590Z,997.74
2019-01-26T05:06:51.618Z,997.75
2019-01-26T05:09:09.150Z,997.73
2019-01-26T05:10:09.128Z,997.73
2019-01-26T05:11:09.113Z,997.76
2019-01-26T05:12:09.097Z,997.69
2019-01-26T05:13:09.118Z,997.73
2019-01-26T05:14:09.084Z,997.74
2019-01-26T05:15:09.072Z,997.71
2019-01-26T05:16:09.067Z,997.68
2019-01-26T05:17:09.093Z,997.73
2019-01-26T05:18:09.035Z,997.72
2019-01-26T05:19:09.034Z,997.75
2019-01-26T05:20:09.022Z,997.70
2019-01-26T05:21:09.011Z,997.70
2019-01-26T05:22:08.995Z,997.75
2019-01-26T05:23:09.016Z,997.74
2019-01-26T05:24:08.973Z,997.73
2019-01-26T05:25:08.969Z,997.72
2019-01-26T05:26:08.960Z,997.69
2019-01-26T05:27:08.953Z,997.71
2019-01-26T05:28:08.958Z,997.73
2019-01-26T05:29:08.920Z,997.69
2019-01-26T05:30:08.911Z,997.68
2019-01-26T05:31:08.903Z,997.69
2019-01-26T05:32:08.895Z,997.67
2019-01-26T05:33:08.911Z,997.62
2019-01-26T05:34:08.882Z,997.59
2019-01-26T05:35:08.858Z,997.60
2019-01-26T05:36:08.849Z,997.57
2019-01-26T05:37:08.846Z,997.56
2019-01-26T05:38:08.864Z,997.51
2019-01-26T05:39:08.829Z,997.54
2019-01-26T05:40:08.815Z,997.53
2019-01-26T05:41:08.822Z,997.50
2019-01-26T05:42:08.792Z,997.43
2019-01-26T05:43:08.783Z,997.45
2019-01-26T05:44:08.811Z,997.46
2019-01-26T05:45:08.766Z,997.44
2019-01-26T05:46:08.742Z,997.44
2019-01-26T05:47:08.735Z,997.43
2019-01-26T05:48:08.728Z,997.48
2019-01-26T05:49:08.721Z,997.48
2019-01-26T05:50:08.731Z,997.45
2019-01-26T05:51:08.718Z,997.45
2019-01-26T05:52:08.687Z,997.43
2019-01-26T05:53:08.682Z,997.43
2019-01-26T05:54:08.709Z,997.41
2019-01-26T05:55:08.665Z,997.39
2019-01-26T05:56:08.651Z,997.37
2019-01-26T05:57:08.633Z,997.37
2019-01-26T05:58:08.619Z,997.35
2019-01-26T05:59:08.605Z,997.36
2019-01-26T06:00:08.619Z,997.35
2019-01-26T06:01:08.621Z,997.33
2019-01-26T06:02:08.669Z,997.38
2019-01-26T06:03:08.641Z,997.37
2019-01-26T06:04:08.577Z,997.38
2019-01-26T06:05:08.576Z,997.41
2019-01-26T06:06:08.541Z,997.40
2019-01-26T06:07:08.583Z,997.41
2019-01-26T06:08:08.562Z,997.36
2019-01-26T06:09:08.555Z,997.34
2019-01-26T06:10:08.522Z,997.41
2019-01-26T06:11:08.538Z,997.43
2019-01-26T06:12:08.489Z,997.44
2019-01-26T06:13:08.511Z,997.47
2019-01-26T06:14:08.478Z,997.38
2019-01-26T06:15:08.494Z,997.39
2019-01-26T06:16:08.471Z,997.34
2019-01-26T06:17:08.437Z,997.33
2019-01-26T06:18:08.430Z,997.30
2019-01-26T06:19:08.413Z,997.32
2019-01-26T06:20:08.411Z,997.33
2019-01-26T06:21:08.424Z,997.28
2019-01-26T06:22:08.427Z,997.25
2019-01-26T06:23:08.368Z,997.26
2019-01-26T06:24:08.360Z,997.34
2019-01-26T06:25:08.358Z,997.37
2019-01-26T06:26:08.337Z,997.35
2019-01-26T06:27:08.363Z,997.34
2019-01-26T06:28:08.323Z,997.37
2019-01-26T06:29:08.311Z,997.38
2019-01-26T06:30:08.293Z,997.36
2019-01-26T06:31:08.283Z,997.35
2019-01-26T06:32:08.293Z,997.36
2019-01-26T06:33:08.276Z,997.32
2019-01-26T06:34:08.257Z,997.29
2019-01-26T06:35:08.249Z,997.29
2019-01-26T06:36:08.296Z,997.33
2019-01-26T06:37:08.238Z,997.27
2019-01-26T06:38:08.280Z,997.28
2019-01-26T06:39:08.780Z,997.23
2019-01-26T06:40:08.209Z,997.20
2019-01-26T06:41:08.195Z,997.21
2019-01-26T06:42:08.185Z,997.14
2019-01-26T06:43:08.160Z,997.17
2019-01-26T06:44:08.170Z,997.15
2019-01-26T06:45:08.181Z,997.17
2019-01-26T06:46:08.123Z,997.18
2019-01-26T06:47:08.155Z,997.18
2019-01-26T06:48:08.130Z,997.20
2019-01-26T06:49:08.142Z,997.15
2019-01-26T06:50:08.092Z,997.16
2019-01-26T06:51:08.083Z,997.16
2019-01-26T06:52:08.057Z,997.15
2019-01-26T06:53:08.089Z,997.17
2019-01-26T06:54:08.104Z,997.16
2019-01-26T06:55:08.022Z,997.14
2019-01-26T06:56:08.022Z,997.17
2019-01-26T06:57:08.095Z,997.13
2019-01-26T06:58:07.999Z,997.09
2019-01-26T06:59:08.021Z,997.13
2019-01-26T07:00:07.985Z,997.17
2019-01-26T07:01:07.971Z,997.20
2019-01-26T07:02:08.030Z,997.16
2019-01-26T07:03:07.959Z,997.10
2019-01-26T07:04:07.985Z,997.10
2019-01-26T07:05:07.927Z,997.11
2019-01-26T07:06:07.914Z,997.13
2019-01-26T07:07:07.943Z,997.11
2019-01-26T07:08:07.908Z,997.14
2019-01-26T07:09:07.887Z,997.14
2019-01-26T07:10:07.868Z,997.16
2019-01-26T07:11:07.868Z,997.15
2019-01-26T07:12:07.853Z,997.13
2019-01-26T07:13:07.862Z,997.18
2019-01-26T07:14:07.856Z,997.10
2019-01-26T07:15:07.819Z,997.12
2019-01-26T07:16:07.804Z,997.15
2019-01-26T07:17:07.804Z,997.13
2019-01-26T07:18:09.447Z,997.14
2019-01-26T07:19:07.816Z,997.13
2019-01-26T07:20:07.799Z,997.15
2019-01-26T07:21:07.757Z,997.16
2019-01-26T07:22:07.745Z,997.20
2019-01-26T07:23:07.747Z,997.20
2019-01-26T07:24:07.741Z,997.18
2019-01-26T07:25:08.548Z,997.18
2019-01-26T07:26:07.711Z,997.21
2019-01-26T07:27:07.689Z,997.21
2019-01-26T07:28:07.680Z,997.21
2019-01-26T07:29:07.672Z,997.19
2019-01-26T07:30:07.694Z,997.19
2019-01-26T07:31:07.663Z,997.22
2019-01-26T07:32:07.647Z,997.26
2019-01-26T07:33:07.624Z,997.29
2019-01-26T07:34:07.614Z,997.32
2019-01-26T07:35:07.611Z,997.31
2019-01-26T07:36:07.616Z,997.33
2019-01-26T07:37:07.587Z,997.32
2019-01-26T07:38:13.477Z,997.35
2019-01-26T07:39:08.572Z,997.38
2019-01-26T07:40:07.562Z,997.38
2019-01-26T07:41:07.574Z,997.31
2019-01-26T07:42:07.547Z,997.28
2019-01-26T07:43:07.597Z,997.31
2019-01-26T07:44:07.564Z,997.31
2019-01-26T07:45:07.497Z,997.33
2019-01-26T07:46:07.500Z,997.31
2019-01-26T07:47:07.526Z,997.37
2019-01-26T07:48:07.480Z,997.30
2019-01-26T07:49:07.492Z,997.27
2019-01-26T07:50:07.465Z,997.27
2019-01-26T07:51:07.569Z,997.30
2019-01-26T07:52:07.451Z,997.28
2019-01-26T07:53:07.436Z,997.30
2019-01-26T07:54:07.440Z,997.33
2019-01-26T07:55:07.398Z,997.36
2019-01-26T07:56:07.383Z,997.35
2019-01-26T07:57:07.379Z,997.31
2019-01-26T07:58:07.366Z,997.30
2019-01-26T07:59:07.370Z,997.29
2019-01-26T08:00:07.375Z,997.31
2019-01-26T08:01:07.339Z,997.31
2019-01-26T08:02:07.340Z,997.36
2019-01-26T08:03:07.315Z,997.35
2019-01-26T08:04:07.315Z,997.32
2019-01-26T08:05:07.336Z,997.32
2019-01-26T08:06:07.284Z,997.31
2019-01-26T08:07:07.292Z,997.35
2019-01-26T08:08:07.261Z,997.37
2019-01-26T08:09:07.297Z,997.34
2019-01-26T08:10:07.242Z,997.35
2019-01-26T08:11:07.227Z,997.37
2019-01-26T08:12:07.222Z,997.35
2019-01-26T08:13:07.208Z,997.36
2019-01-26T08:14:07.192Z,997.28
2019-01-26T08:15:07.279Z,997.31
2019-01-26T08:16:07.181Z,997.31
2019-01-26T08:17:07.185Z,997.28
2019-01-26T08:18:07.158Z,997.25
2019-01-26T08:19:07.146Z,997.21
2019-01-26T08:20:07.162Z,997.25
2019-01-26T08:21:07.141Z,997.25
2019-01-26T08:22:07.148Z,997.23
2019-01-26T08:23:07.100Z,997.27
2019-01-26T08:24:07.096Z,997.24
2019-01-26T08:25:07.079Z,997.26
2019-01-26T08:26:07.075Z,997.25
2019-01-26T08:27:07.050Z,997.25
2019-01-26T08:28:07.127Z,997.26
2019-01-26T08:29:07.052Z,997.25
2019-01-26T08:30:07.031Z,997.23
2019-01-26T08:31:07.013Z,997.29
2019-01-26T08:32:07.003Z,997.22
2019-01-26T08:33:07.019Z,997.25
2019-01-26T08:34:06.990Z,997.22
2019-01-26T08:35:06.976Z,997.20
2019-01-26T08:36:06.980Z,997.19
2019-01-26T08:37:06.971Z,997.18
2019-01-26T08:38:06.978Z,997.20
2019-01-26T08:39:06.945Z,997.19
2019-01-26T08:40:06.916Z,997.23
2019-01-26T08:41:06.911Z,997.21
2019-01-26T08:42:06.916Z,997.15
2019-01-26T08:43:06.922Z,997.20
2019-01-26T08:44:06.887Z,997.14
2019-01-26T08:45:06.997Z,997.20
2019-01-26T08:46:07.219Z,997.19
2019-01-26T08:47:07.000Z,997.19
2019-01-26T08:48:06.860Z,997.18
2019-01-26T08:49:08.759Z,997.20
2019-01-26T08:50:07.025Z,997.14
2019-01-26T08:51:07.654Z,997.14
2019-01-26T08:52:07.050Z,997.17
2019-01-26T08:53:06.971Z,997.20
2019-01-26T08:54:06.815Z,997.18
2019-01-26T08:55:06.800Z,997.15
2019-01-26T08:56:06.782Z,997.21
2019-01-26T08:57:06.739Z,997.26
2019-01-26T08:58:06.743Z,997.28
2019-01-26T08:59:06.833Z,997.25
2019-01-26T09:00:06.784Z,997.28
2019-01-26T09:01:06.731Z,997.25
2019-01-26T09:02:06.702Z,997.26
2019-01-26T09:03:06.682Z,997.28
2019-01-26T09:04:06.666Z,997.26
2019-01-26T09:05:06.659Z,997.22
2019-01-26T09:06:06.740Z,997.22
2019-01-26T09:07:06.638Z,997.22
2019-01-26T09:08:06.630Z,997.21
2019-01-26T09:09:06.654Z,997.23
2019-01-26T09:10:06.600Z,997.23
2019-01-26T09:11:06.597Z,997.21
2019-01-26T09:12:06.605Z,997.21
2019-01-26T09:13:06.600Z,997.22
2019-01-26T09:14:06.574Z,997.24
2019-01-26T09:15:06.564Z,997.23
2019-01-26T09:16:06.559Z,997.26
2019-01-26T09:17:06.575Z,997.26
2019-01-26T09:18:06.516Z,997.28
2019-01-26T09:19:06.514Z,997.26
2019-01-26T09:20:06.505Z,997.31
2019-01-26T09:21:06.487Z,997.30
2019-01-26T09:22:06.498Z,997.28
2019-01-26T09:23:06.523Z,997.28
2019-01-26T09:24:06.455Z,997.31
2019-01-26T09:25:06.453Z,997.33
2019-01-26T09:26:06.445Z,997.30
2019-01-26T09:27:06.437Z,997.32
2019-01-26T09:28:06.459Z,997.36
2019-01-26T09:29:06.411Z,997.34
2019-01-26T09:30:06.401Z,997.34
2019-01-26T09:31:06.381Z,997.35
2019-01-26T09:32:06.371Z,997.34
2019-01-26T09:33:06.364Z,997.34
2019-01-26T09:34:06.380Z,997.35
2019-01-26T09:35:06.344Z,997.32
2019-01-26T09:36:06.325Z,997.32
2019-01-26T09:37:06.325Z,997.30
2019-01-26T09:38:06.327Z,997.29
2019-01-26T09:39:06.334Z,997.27
2019-01-26T09:40:06.316Z,997.29
2019-01-26T09:41:06.281Z,997.25
2019-01-26T09:42:06.311Z,997.25
2019-01-26T09:43:06.294Z,997.26
2019-01-26T09:44:06.356Z,997.20
2019-01-26T09:45:06.239Z,997.20
2019-01-26T09:46:06.228Z,997.19
2019-01-26T09:47:06.225Z,997.22
2019-01-26T09:48:06.202Z,997.20
2019-01-26T09:49:06.217Z,997.20
2019-01-26T09:50:06.188Z,997.24
2019-01-26T09:51:06.172Z,997.22
2019-01-26T09:52:06.170Z,997.24
2019-01-26T09:53:06.227Z,997.20
2019-01-26T09:54:06.190Z,997.19
2019-01-26T09:55:06.167Z,997.20
2019-01-26T09:56:06.118Z,997.18
2019-01-26T09:57:06.163Z,997.24
2019-01-26T09:58:06.170Z,997.22
2019-01-26T09:59:06.178Z,997.20
2019-01-26T10:00:06.142Z,997.23
2019-01-26T10:01:06.161Z,997.25
2019-01-26T10:02:06.061Z,997.23
2019-01-26T10:03:06.112Z,997.15
2019-01-26T10:04:06.037Z,997.18
2019-01-26T10:05:06.026Z,997.20
2019-01-26T10:06:06.062Z,997.17
2019-01-26T10:07:06.130Z,997.17
2019-01-26T10:08:06.036Z,997.15
2019-01-26T10:09:06.008Z,997.15
2019-01-26T10:10:05.973Z,997.16
2019-01-26T10:11:05.960Z,997.16
2019-01-26T10:12:05.973Z,997.20
2019-01-26T10:13:05.939Z,997.20
2019-01-26T10:14:05.930Z,997.08
2019-01-26T10:15:05.918Z,997.13
2019-01-26T10:16:05.915Z,997.10
2019-01-26T10:17:05.937Z,997.15
2019-01-26T10:18:05.892Z,997.18
2019-01-26T10:19:05.882Z,997.14
2019-01-26T10:20:05.866Z,997.19
2019-01-26T10:21:05.948Z,997.21
2019-01-26T10:22:05.840Z,997.19
2019-01-26T10:23:05.875Z,997.16
2019-01-26T10:24:05.834Z,997.19
2019-01-26T10:25:05.813Z,997.13
2019-01-26T10:26:05.799Z,997.13
2019-01-26T10:27:05.786Z,997.11
2019-01-26T10:28:05.798Z,997.06
2019-01-26T10:29:05.807Z,997.05
2019-01-26T10:30:05.775Z,997.03
2019-01-26T10:31:05.751Z,997.07
2019-01-26T10:32:05.751Z,997.09
2019-01-26T10:33:05.734Z,997.07
2019-01-26T10:34:05.739Z,997.05
2019-01-26T10:35:05.706Z,997.04
2019-01-26T10:36:05.699Z,997.04
2019-01-26T10:37:05.698Z,997.00
2019-01-26T10:38:05.726Z,997.01
2019-01-26T10:39:05.708Z,997.04
2019-01-26T10:40:05.646Z,997.00
2019-01-26T10:41:05.653Z,997.01
2019-01-26T10:42:05.638Z,997.01
2019-01-26T10:43:05.636Z,997.03
2019-01-26T10:44:05.900Z,997.02
2019-01-26T10:45:05.603Z,996.98
2019-01-26T10:46:05.590Z,996.99
2019-01-26T10:47:05.580Z,996.97
2019-01-26T10:48:05.575Z,997.00
2019-01-26T10:49:05.558Z,996.99
2019-01-26T10:50:05.594Z,996.97
2019-01-26T10:51:05.542Z,997.00
2019-01-26T10:52:05.527Z,997.00
2019-01-26T10:53:05.512Z,996.98
2019-01-26T10:54:05.506Z,997.04
2019-01-26T10:55:05.523Z,997.01
2019-01-26T10:56:05.491Z,996.97
2019-01-26T10:57:05.478Z,997.02
2019-01-26T10:58:05.457Z,997.03
2019-01-26T10:59:05.460Z,996.97
2019-01-26T11:00:05.476Z,996.98
2019-01-26T11:01:05.462Z,996.97
2019-01-26T11:02:06.833Z,997.04
2019-01-26T11:03:05.423Z,997.00
2019-01-26T11:04:05.403Z,996.98
2019-01-26T11:05:05.492Z,996.94
2019-01-26T11:06:05.412Z,996.91
2019-01-26T11:07:05.419Z,996.94
2019-01-26T11:08:05.356Z,996.95
2019-01-26T11:09:05.355Z,996.94
2019-01-26T11:10:05.344Z,996.89
2019-01-26T11:11:05.348Z,996.88
2019-01-26T11:12:05.416Z,996.99
2019-01-26T11:13:05.348Z,996.95
2019-01-26T11:14:05.309Z,996.97
2019-01-26T11:15:05.337Z,996.94
2019-01-26T11:16:05.332Z,997.01
2019-01-26T11:17:05.350Z,996.99
2019-01-26T11:18:05.347Z,997.00
2019-01-26T11:19:08.031Z,996.99
2019-01-26T11:20:05.289Z,996.99
2019-01-26T11:21:05.256Z,996.94
2019-01-26T11:22:05.299Z,996.94
2019-01-26T11:23:05.208Z,996.94
2019-01-26T11:24:05.231Z,996.97
2019-01-26T11:25:05.175Z,996.94
2019-01-26T11:26:05.170Z,996.91
2019-01-26T11:27:05.168Z,996.89
2019-01-26T11:28:05.231Z,996.87
2019-01-26T11:29:05.335Z,996.83
2019-01-26T11:30:05.179Z,996.87
2019-01-26T11:31:05.152Z,996.86
2019-01-26T11:32:05.149Z,996.83
2019-01-26T11:33:05.903Z,996.83
2019-01-26T11:34:05.183Z,996.86
2019-01-26T11:35:05.820Z,996.86
2019-01-26T11:36:05.172Z,996.86
2019-01-26T11:37:05.057Z,996.87
2019-01-26T11:38:05.202Z,996.83
2019-01-26T11:39:05.031Z,996.83
2019-01-26T11:40:05.106Z,996.80
2019-01-26T11:41:05.079Z,996.80
2019-01-26T11:42:05.112Z,996.81
2019-01-26T11:43:05.002Z,996.79
2019-01-26T11:44:05.002Z,996.82
2019-01-26T11:45:04.992Z,996.83
2019-01-26T11:46:04.956Z,996.83
2019-01-26T11:47:06.090Z,996.84
2019-01-26T11:48:04.980Z,996.85
2019-01-26T11:49:05.047Z,996.82
2019-01-26T11:50:04.931Z,996.84
2019-01-26T11:51:04.998Z,996.82
2019-01-26T11:52:04.889Z,996.85
2019-01-26T11:53:05.825Z,996.80
2019-01-26T11:54:04.926Z,996.79
2019-01-26T11:55:04.898Z,996.86
2019-01-26T11:56:04.869Z,996.82
2019-01-26T11:57:04.892Z,996.78
2019-01-26T11:58:04.988Z,996.80
2019-01-26T11:59:04.943Z,996.77
2019-01-26T12:00:04.809Z,996.77
2019-01-26T12:01:04.815Z,996.72
2019-01-26T12:02:04.785Z,996.73
2019-01-26T12:03:04.833Z,996.74
2019-01-26T12:04:04.788Z,996.76
2019-01-26T12:05:04.849Z,996.72
2019-01-26T12:06:04.747Z,996.71
2019-01-26T12:07:04.746Z,996.71
2019-01-26T12:08:04.728Z,996.75
2019-01-26T12:09:04.836Z,996.69
2019-01-26T12:10:04.717Z,996.70
2019-01-26T12:11:04.700Z,996.71
2019-01-26T12:12:04.695Z,996.65
2019-01-26T12:13:04.687Z,996.65
2019-01-26T12:14:04.759Z,996.66
2019-01-26T12:15:04.709Z,996.66
2019-01-26T12:16:04.657Z,996.67
2019-01-26T12:17:04.736Z,996.75
2019-01-26T12:18:04.622Z,996.66
2019-01-26T12:19:04.691Z,996.68
2019-01-26T12:20:04.615Z,996.61
2019-01-26T12:21:05.904Z,996.63
2019-01-26T12:22:04.626Z,996.62
2019-01-26T12:23:04.616Z,996.64
2019-01-26T12:24:04.551Z,996.64
2019-01-26T12:25:04.550Z,996.64
2019-01-26T12:26:04.546Z,996.61